createdAt,value
2023-02-23T00:02:13.083Z,87.97
2023-02-23T00:04:42.349Z,106.35
2023-02-23T00:07:10.644Z,127.05
2023-02-23T00:09:39.485Z,97.28
2023-02-23T00:12:10.428Z,144.05
2023-02-23T00:14:38.682Z,139.68
2023-02-23T00:17:14.871Z,139.60
2023-02-23T00:19:44.151Z,87.63
2023-02-23T00:22:13.007Z,70.55
2023-02-23T00:24:43.147Z,56.10
2023-02-23T00:27:10.826Z,61.40
2023-02-23T00:29:40.819Z,50.35
2023-02-23T00:32:08.502Z,50.63
2023-02-23T00:34:37.078Z,55.08
2023-02-23T00:37:04.727Z,54.58
2023-02-23T00:39:32.275Z,49.05
2023-02-23T00:42:03.816Z,50.55
2023-02-23T00:44:34.074Z,56.05
2023-02-23T00:47:02.206Z,56.17
2023-02-23T00:49:29.780Z,54.08
2023-02-23T00:51:57.158Z,57.38
2023-02-23T00:54:24.700Z,55.58
2023-02-23T00:56:54.116Z,58.22
2023-02-23T00:59:21.685Z,54.67
2023-02-23T01:01:52.806Z,54.70
2023-02-23T01:04:20.123Z,60.55
2023-02-23T01:06:47.544Z,64.10
2023-02-23T01:09:28.710Z,63.22
2023-02-23T01:11:57.442Z,65.38
2023-02-23T01:14:25.367Z,65.55
2023-02-23T01:16:53.947Z,66.82
2023-02-23T01:19:22.578Z,58.22
2023-02-23T01:21:52.178Z,61.22
2023-02-23T01:24:20.844Z,68.65
2023-02-23T01:26:54.286Z,61.45
2023-02-23T01:31:53.160Z,62.30
2023-02-23T01:34:21.948Z,69.78
2023-02-23T01:36:50.422Z,62.72
2023-02-23T01:39:23.447Z,65.18
2023-02-23T01:41:52.823Z,64.35
2023-02-23T01:44:20.309Z,65.88
2023-02-23T01:46:49.620Z,60.97
2023-02-23T01:49:23.701Z,65.05
2023-02-23T01:52:04.887Z,67.78
2023-02-23T01:54:36.671Z,68.75
2023-02-23T01:57:06.823Z,67.32
2023-02-23T01:59:36.685Z,71.38
2023-02-23T02:02:06.496Z,70.20
2023-02-23T02:04:44.802Z,64.75
2023-02-23T02:07:23.651Z,65.03
2023-02-23T02:10:11.326Z,67.03
2023-02-23T02:12:44.678Z,66.00
2023-02-23T02:18:09.553Z,75.93
2023-02-23T02:21:12.120Z,68.43
2023-02-23T02:24:09.887Z,72.60
2023-02-23T02:26:54.769Z,74.15
2023-02-23T02:29:56.343Z,84.90
2023-02-23T02:32:26.211Z,86.45
2023-02-23T02:35:06.033Z,84.05
2023-02-23T02:37:56.966Z,89.00
2023-02-23T02:40:53.647Z,85.53
2023-02-23T02:43:43.176Z,88.95
2023-02-23T02:46:37.472Z,92.97
2023-02-23T02:49:26.884Z,91.40
2023-02-23T02:52:06.070Z,98.28
2023-02-23T02:54:40.270Z,94.85
2023-02-23T02:57:15.204Z,99.32
2023-02-23T03:00:08.219Z,101.70
2023-02-23T03:02:56.573Z,99.07
2023-02-23T03:05:55.254Z,102.07
2023-02-23T03:08:59.994Z,102.03
2023-02-23T03:11:55.768Z,110.40
2023-02-23T03:14:58.158Z,105.57
2023-02-23T03:18:06.670Z,115.30
2023-02-23T03:21:04.523Z,110.00
2023-02-23T03:24:20.344Z,107.55
2023-02-23T03:27:17.737Z,112.57
2023-02-23T03:30:22.243Z,101.63
2023-02-23T03:33:15.077Z,110.53
2023-02-23T03:36:19.549Z,108.60
2023-02-23T03:39:27.746Z,104.37
2023-02-23T03:42:16.966Z,101.97
2023-02-23T03:45:18.243Z,97.20
2023-02-23T03:48:05.527Z,94.78
2023-02-23T03:51:00.012Z,105.35
2023-02-23T03:53:54.785Z,94.88
2023-02-23T03:56:45.348Z,92.10
2023-02-23T03:59:37.000Z,90.00
2023-02-23T04:02:25.282Z,89.88
2023-02-23T04:05:15.564Z,86.80
2023-02-23T04:08:04.760Z,84.00
2023-02-23T04:10:53.726Z,87.40
2023-02-23T04:13:25.148Z,87.47
2023-02-23T04:16:00.682Z,89.70
2023-02-23T04:18:37.732Z,83.80
2023-02-23T04:21:06.525Z,77.03
2023-02-23T04:23:36.648Z,75.75
2023-02-23T04:26:05.415Z,88.90
2023-02-23T04:28:32.463Z,79.65
2023-02-23T04:31:02.591Z,73.40
2023-02-23T04:33:30.062Z,82.30
2023-02-23T04:35:58.499Z,81.38
2023-02-23T04:38:25.943Z,77.00
2023-02-23T04:40:53.409Z,70.57
2023-02-23T04:43:22.967Z,75.45
2023-02-23T04:45:51.862Z,70.00
2023-02-23T04:48:19.576Z,73.50
2023-02-23T04:50:53.351Z,71.95
2023-02-23T04:53:20.969Z,68.30
2023-02-23T04:55:48.400Z,71.97
2023-02-23T04:58:17.396Z,68.50
2023-02-23T05:00:45.897Z,62.28
2023-02-23T05:03:13.084Z,70.35
2023-02-23T05:05:41.242Z,68.60
2023-02-23T05:08:08.780Z,70.30
2023-02-23T05:10:37.347Z,70.18
2023-02-23T05:13:05.216Z,71.00
2023-02-23T05:15:32.868Z,67.35
2023-02-23T05:18:00.252Z,72.03
2023-02-23T05:20:28.628Z,71.53
2023-02-23T05:22:56.025Z,66.25
2023-02-23T05:25:23.506Z,70.95
2023-02-23T05:27:51.178Z,69.00
2023-02-23T05:30:19.482Z,69.30
2023-02-23T05:32:46.849Z,62.50
2023-02-23T05:35:14.288Z,64.53
2023-02-23T05:37:41.830Z,62.88
2023-02-23T05:40:09.586Z,66.30
2023-02-23T05:42:38.689Z,68.10
2023-02-23T05:45:07.473Z,62.05
2023-02-23T05:47:38.953Z,63.53
2023-02-23T05:50:12.542Z,64.38
2023-02-23T05:52:45.511Z,64.88
2023-02-23T05:55:13.564Z,65.63
2023-02-23T05:57:44.114Z,60.70
2023-02-23T06:00:19.365Z,73.28
2023-02-23T06:02:46.453Z,63.42
2023-02-23T06:05:14.372Z,59.22
2023-02-23T06:07:42.579Z,64.28
2023-02-23T06:10:10.436Z,65.60
2023-02-23T06:12:37.532Z,70.72
2023-02-23T06:15:12.258Z,74.47
2023-02-23T06:17:39.526Z,69.88
2023-02-23T06:20:07.587Z,65.13
2023-02-23T06:22:36.054Z,63.53
2023-02-23T06:25:05.257Z,69.15
2023-02-23T06:27:34.466Z,66.90
2023-02-23T06:30:01.969Z,63.50
2023-02-23T06:32:29.514Z,63.72
2023-02-23T06:34:58.275Z,59.03
2023-02-23T06:37:25.487Z,64.38
2023-02-23T06:39:52.574Z,61.88
2023-02-23T06:42:20.044Z,61.45
2023-02-23T06:44:47.484Z,65.22
2023-02-23T06:47:14.922Z,63.58
2023-02-23T06:49:42.413Z,69.45
2023-02-23T06:52:10.707Z,56.10
2023-02-23T06:54:41.998Z,67.43
2023-02-23T06:57:10.386Z,63.83
2023-02-23T06:59:37.846Z,68.80
2023-02-23T07:02:07.942Z,60.33
2023-02-23T07:04:35.303Z,73.00
2023-02-23T07:07:04.028Z,78.55
2023-02-23T07:09:31.720Z,71.40
2023-02-23T07:11:59.680Z,60.15
2023-02-23T07:14:27.444Z,67.85
2023-02-23T07:16:54.856Z,64.28
2023-02-23T07:19:28.623Z,59.05
2023-02-23T07:21:57.078Z,63.10
2023-02-23T07:24:27.715Z,64.05
2023-02-23T07:26:55.548Z,63.88
2023-02-23T07:29:28.386Z,62.67
2023-02-23T07:31:56.387Z,61.53
2023-02-23T07:34:23.834Z,58.25
2023-02-23T07:36:51.195Z,63.38
2023-02-23T07:39:18.793Z,63.33
2023-02-23T07:41:47.222Z,61.92
2023-02-23T07:44:14.571Z,53.38
2023-02-23T07:46:42.149Z,54.40
2023-02-23T07:49:10.615Z,60.00
2023-02-23T07:51:39.669Z,60.40
2023-02-23T07:54:10.150Z,63.50
2023-02-23T07:56:37.630Z,58.90
2023-02-23T07:59:06.072Z,59.05
2023-02-23T08:01:33.524Z,63.67
2023-02-23T08:04:01.230Z,62.05
2023-02-23T08:06:30.934Z,57.40
2023-02-23T08:09:03.179Z,63.47
2023-02-23T08:11:30.660Z,61.97
2023-02-23T08:14:02.936Z,59.97
2023-02-23T08:16:32.313Z,62.53
2023-02-23T08:19:00.930Z,57.92
2023-02-23T08:21:30.512Z,62.17
2023-02-23T08:23:59.246Z,56.03
2023-02-23T08:26:27.068Z,55.03
2023-02-23T08:28:55.364Z,61.03
2023-02-23T08:31:24.938Z,63.83
2023-02-23T08:33:53.764Z,62.92
2023-02-23T08:36:23.080Z,61.78
2023-02-23T08:38:51.556Z,61.22
2023-02-23T08:41:19.077Z,51.13
2023-02-23T08:43:46.680Z,59.75
2023-02-23T08:46:16.935Z,59.30
2023-02-23T08:48:44.346Z,61.28
2023-02-23T08:51:11.833Z,63.45
2023-02-23T08:53:39.251Z,61.40
2023-02-23T08:56:13.685Z,61.47
2023-02-23T08:58:43.039Z,60.47
2023-02-23T09:01:24.585Z,64.13
2023-02-23T09:03:51.821Z,64.13
2023-02-23T09:06:21.387Z,65.22
2023-02-23T09:08:48.703Z,60.92
2023-02-23T09:11:16.097Z,59.25
2023-02-23T09:13:44.091Z,67.70
2023-02-23T09:16:11.643Z,65.75
2023-02-23T09:18:39.534Z,62.20
2023-02-23T09:21:19.389Z,63.72
2023-02-23T09:23:48.551Z,55.88
2023-02-23T09:26:18.204Z,59.97
2023-02-23T09:28:46.815Z,59.47
2023-02-23T09:31:18.382Z,63.28
2023-02-23T09:33:46.947Z,59.80
2023-02-23T09:36:16.848Z,59.13
2023-02-23T09:38:46.021Z,59.95
2023-02-23T09:41:51.975Z,62.33
2023-02-23T09:44:48.395Z,60.60
2023-02-23T09:47:40.660Z,60.30
2023-02-23T09:50:22.897Z,61.42
2023-02-23T09:52:57.104Z,60.42
2023-02-23T09:55:26.029Z,66.30
2023-02-23T09:57:59.436Z,66.93
2023-02-23T10:00:30.168Z,63.30
2023-02-23T10:03:29.315Z,66.72
2023-02-23T10:06:02.034Z,63.00
2023-02-23T10:09:06.722Z,60.90
2023-02-23T10:11:56.699Z,62.92
2023-02-23T10:14:38.558Z,56.67
2023-02-23T10:17:21.821Z,62.47
2023-02-23T10:20:15.189Z,56.80
2023-02-23T10:22:45.187Z,54.92
2023-02-23T10:25:36.452Z,83.90
2023-02-23T10:28:04.325Z,57.30
2023-02-23T10:30:34.542Z,52.38
2023-02-23T10:33:18.654Z,54.78
2023-02-23T10:36:12.563Z,52.60
2023-02-23T10:38:41.421Z,49.15
2023-02-23T10:41:10.953Z,49.63
2023-02-23T10:43:39.209Z,47.05
2023-02-23T10:46:07.679Z,45.90
2023-02-23T10:48:41.366Z,44.40
2023-02-23T10:53:44.100Z,46.97
2023-02-23T10:56:15.345Z,44.80
2023-02-23T10:58:49.538Z,49.17
2023-02-23T11:01:33.468Z,47.70
2023-02-23T11:06:43.272Z,46.95
2023-02-23T11:09:44.581Z,47.85
2023-02-23T11:12:37.281Z,48.08
2023-02-23T11:15:38.881Z,48.60
2023-02-23T11:18:22.563Z,49.65
2023-02-23T11:20:51.385Z,46.05
2023-02-23T11:23:29.624Z,40.63
2023-02-23T11:26:02.791Z,47.30
2023-02-23T11:28:35.248Z,42.03
2023-02-23T11:31:16.248Z,43.95
2023-02-23T11:33:44.477Z,41.80
2023-02-23T11:36:17.881Z,43.08
2023-02-23T11:38:48.143Z,36.25
2023-02-23T11:41:24.378Z,40.67
2023-02-23T11:43:56.949Z,38.38
2023-02-23T11:46:26.481Z,42.58
2023-02-23T11:49:00.177Z,40.30
2023-02-23T11:53:59.833Z,41.58
2023-02-23T11:56:29.418Z,38.40
2023-02-23T11:59:16.647Z,43.28
2023-02-23T12:01:50.193Z,40.75
2023-02-23T12:04:31.400Z,38.65
2023-02-23T12:07:43.476Z,40.45
2023-02-23T12:10:15.519Z,41.22
2023-02-23T12:12:53.289Z,39.28
2023-02-23T12:15:34.999Z,38.88
2023-02-23T12:18:18.830Z,42.47
2023-02-23T12:20:49.270Z,43.45
2023-02-23T12:23:26.976Z,45.05
2023-02-23T12:26:29.826Z,43.65
2023-02-23T12:29:49.373Z,42.47
2023-02-23T12:32:24.885Z,42.22
2023-02-23T12:35:02.433Z,38.78
2023-02-23T12:37:41.176Z,45.33
2023-02-23T12:40:28.857Z,40.85
2023-02-23T12:43:27.263Z,45.13
2023-02-23T12:46:08.671Z,38.25
2023-02-23T12:49:01.633Z,44.47
2023-02-23T12:52:38.952Z,39.95
2023-02-23T12:55:14.080Z,40.30
2023-02-23T12:57:45.740Z,42.78
2023-02-23T13:00:31.476Z,45.80
2023-02-23T13:03:17.796Z,45.10
2023-02-23T13:06:04.514Z,41.83
2023-02-23T13:09:11.048Z,43.05
2023-02-23T13:11:56.723Z,45.83
2023-02-23T13:14:34.066Z,47.00
2023-02-23T13:17:09.575Z,44.00
2023-02-23T13:19:50.589Z,42.53
2023-02-23T13:22:47.284Z,46.00
2023-02-23T13:25:54.330Z,48.00
2023-02-23T13:28:57.189Z,46.75
2023-02-23T13:31:34.602Z,49.55
2023-02-23T13:34:03.939Z,50.05
2023-02-23T13:36:36.939Z,46.90
2023-02-23T13:39:20.333Z,51.58
2023-02-23T13:42:21.025Z,47.95
2023-02-23T13:45:20.686Z,48.90
2023-02-23T13:48:07.329Z,49.15
2023-02-23T13:50:48.330Z,56.92
2023-02-23T13:53:37.530Z,46.67
2023-02-23T13:56:09.073Z,47.13
2023-02-23T13:58:37.423Z,55.45
2023-02-23T14:01:21.226Z,49.78
2023-02-23T14:06:26.028Z,51.55
2023-02-23T14:09:08.571Z,46.80
2023-02-23T14:11:53.955Z,46.90
2023-02-23T14:14:34.596Z,47.50
2023-02-23T14:17:12.434Z,46.03
2023-02-23T14:20:03.585Z,49.35
2023-02-23T14:22:34.746Z,47.05
2023-02-23T14:25:32.977Z,52.97
2023-02-23T14:28:22.398Z,48.17
2023-02-23T14:31:14.220Z,53.65
2023-02-23T14:33:46.268Z,55.15
2023-02-23T14:36:22.918Z,52.40
2023-02-23T14:39:07.377Z,54.83
2023-02-23T14:41:34.680Z,53.63
2023-02-23T14:44:29.831Z,56.35
2023-02-23T14:47:16.486Z,51.45
2023-02-23T14:49:51.590Z,51.95
2023-02-23T14:52:35.565Z,50.88
2023-02-23T14:58:04.801Z,51.50
2023-02-23T15:00:41.493Z,49.72
2023-02-23T15:03:12.987Z,48.97
2023-02-23T15:05:55.078Z,50.20
2023-02-23T15:08:25.982Z,45.42
2023-02-23T15:11:13.545Z,45.90
2023-02-23T15:13:47.697Z,47.63
2023-02-23T15:16:24.561Z,47.92
2023-02-23T15:19:34.395Z,45.72
2023-02-23T15:22:03.953Z,47.92
2023-02-23T15:24:43.325Z,45.45
2023-02-23T15:27:26.206Z,44.75
2023-02-23T15:29:55.869Z,41.63
2023-02-23T15:32:26.655Z,38.10
2023-02-23T15:35:04.074Z,39.10
2023-02-23T15:37:56.593Z,41.28
2023-02-23T15:40:33.774Z,34.85
2023-02-23T15:43:01.854Z,35.20
2023-02-23T15:45:30.444Z,36.85
2023-02-23T15:48:03.682Z,35.38
2023-02-23T15:50:37.279Z,34.90
2023-02-23T15:53:13.776Z,32.92
2023-02-23T15:55:44.659Z,35.47
2023-02-23T15:58:25.553Z,33.80
2023-02-23T16:01:29.186Z,34.55
2023-02-23T16:04:02.832Z,35.17
2023-02-23T16:09:20.466Z,38.50
2023-02-23T16:11:52.885Z,36.25
2023-02-23T16:14:22.704Z,41.33
2023-02-23T16:17:08.367Z,35.70
2023-02-23T16:19:41.733Z,34.60
2023-02-23T16:22:20.696Z,34.13
2023-02-23T16:24:58.076Z,38.00
2023-02-23T16:27:27.246Z,36.17
2023-02-23T16:30:31.687Z,34.38
2023-02-23T16:33:23.038Z,36.15
2023-02-23T16:36:15.097Z,41.35
2023-02-23T16:39:00.662Z,35.40
2023-02-23T16:41:31.622Z,40.78
2023-02-23T16:44:02.828Z,36.65
2023-02-23T16:46:33.898Z,39.72
2023-02-23T16:49:12.784Z,35.15
2023-02-23T16:51:40.940Z,38.00
2023-02-23T16:54:09.018Z,39.28
2023-02-23T16:56:40.337Z,37.75
2023-02-23T16:59:11.258Z,41.22
2023-02-23T17:01:39.022Z,40.75
2023-02-23T17:04:15.906Z,37.78
2023-02-23T17:06:45.290Z,38.63
2023-02-23T17:09:13.844Z,43.28
2023-02-23T17:11:42.913Z,40.05
2023-02-23T17:14:20.666Z,37.88
2023-02-23T17:16:48.982Z,49.80
2023-02-23T17:19:19.427Z,39.50
2023-02-23T17:21:49.112Z,46.60
2023-02-23T17:24:17.538Z,41.80
2023-02-23T17:26:46.325Z,42.95
2023-02-23T17:29:15.001Z,42.53
2023-02-23T17:31:42.847Z,38.85
2023-02-23T17:34:16.529Z,43.25
2023-02-23T17:36:47.089Z,44.78
2023-02-23T17:39:18.041Z,41.78
2023-02-23T17:41:47.119Z,41.50
2023-02-23T17:44:15.057Z,48.63
2023-02-23T17:46:44.645Z,44.38
2023-02-23T17:49:14.434Z,44.38
2023-02-23T17:51:43.942Z,43.70
2023-02-23T17:54:14.536Z,46.15
2023-02-23T17:56:44.503Z,43.55
2023-02-23T17:59:12.297Z,41.00
2023-02-23T18:01:42.618Z,42.67
2023-02-23T18:04:10.946Z,45.13
2023-02-23T18:06:39.155Z,44.70
2023-02-23T18:09:09.492Z,45.60
2023-02-23T18:11:37.599Z,46.00
2023-02-23T18:14:06.079Z,47.35
2023-02-23T18:16:36.480Z,73.10
2023-02-23T18:19:05.639Z,51.88
2023-02-23T18:21:35.442Z,47.40
2023-02-23T18:24:04.610Z,49.08
2023-02-23T18:26:33.699Z,48.67
2023-02-23T18:29:04.528Z,48.13
2023-02-23T18:31:38.990Z,49.28
2023-02-23T18:34:09.797Z,49.58
2023-02-23T18:36:39.042Z,49.22
2023-02-23T18:39:11.117Z,43.75
2023-02-23T18:41:42.639Z,48.80
2023-02-23T18:44:15.775Z,44.03
2023-02-23T18:46:46.629Z,44.60
2023-02-23T18:49:24.414Z,41.15
2023-02-23T18:51:56.152Z,44.25
2023-02-23T18:54:26.717Z,44.20
2023-02-23T18:56:56.762Z,43.22
2023-02-23T18:59:24.581Z,47.50
2023-02-23T19:01:54.233Z,50.75
2023-02-23T19:04:22.474Z,49.85
2023-02-23T19:07:02.750Z,46.72
2023-02-23T19:09:31.201Z,46.67
2023-02-23T19:12:01.341Z,46.83
2023-02-23T19:14:48.885Z,44.33
2023-02-23T19:17:21.036Z,44.67
2023-02-23T19:19:49.673Z,48.22
2023-02-23T19:22:17.957Z,46.33
2023-02-23T19:24:48.919Z,43.22
2023-02-23T19:27:17.296Z,42.53
2023-02-23T19:29:47.204Z,47.58
2023-02-23T19:32:20.080Z,44.20
2023-02-23T19:34:48.882Z,44.40
2023-02-23T19:37:17.308Z,36.33
2023-02-23T19:39:50.705Z,42.05
2023-02-23T19:42:26.547Z,48.22
2023-02-23T19:44:55.561Z,43.13
2023-02-23T19:47:23.891Z,44.83
2023-02-23T19:49:55.337Z,44.00
2023-02-23T19:52:23.723Z,46.80
2023-02-23T19:54:51.459Z,41.05
2023-02-23T19:57:22.012Z,49.92
2023-02-23T19:59:51.973Z,55.65
2023-02-23T20:02:19.535Z,64.13
2023-02-23T20:04:51.706Z,62.42
2023-02-23T20:07:19.625Z,75.53
2023-02-23T20:09:48.065Z,72.38
2023-02-23T20:12:17.486Z,95.25
2023-02-23T20:14:45.924Z,83.68
2023-02-23T20:17:14.272Z,68.70
2023-02-23T20:19:44.361Z,68.05
2023-02-23T20:22:12.668Z,73.15
2023-02-23T20:24:42.579Z,51.80
2023-02-23T20:27:13.418Z,45.42
2023-02-23T20:29:43.887Z,44.92
2023-02-23T20:32:13.386Z,105.15
2023-02-23T20:34:43.938Z,109.07
2023-02-23T20:37:12.645Z,107.47
2023-02-23T20:39:47.265Z,87.53
2023-02-23T20:42:15.072Z,66.20
2023-02-23T20:44:49.175Z,55.20
2023-02-23T20:47:30.637Z,54.83
2023-02-23T20:49:59.284Z,66.85
2023-02-23T20:52:26.927Z,41.05
2023-02-23T20:55:03.782Z,39.88
2023-02-23T20:57:33.695Z,41.72
2023-02-23T21:00:02.580Z,41.45
2023-02-23T21:02:33.471Z,42.88
2023-02-23T21:05:01.989Z,50.67
2023-02-23T21:07:30.108Z,47.22
2023-02-23T21:10:00.832Z,49.00
2023-02-23T21:12:29.052Z,83.55
2023-02-23T21:14:57.582Z,88.82
2023-02-23T21:17:26.287Z,87.10
2023-02-23T21:19:54.817Z,81.03
2023-02-23T21:22:23.478Z,80.70
2023-02-23T21:24:51.546Z,66.10
2023-02-23T21:27:21.111Z,47.95
2023-02-23T21:29:48.909Z,47.78
2023-02-23T21:32:18.956Z,85.60
2023-02-23T21:34:46.993Z,103.43
2023-02-23T21:37:15.638Z,84.35
2023-02-23T21:39:51.333Z,70.80
2023-02-23T21:42:23.093Z,74.32
2023-02-23T21:44:51.184Z,90.83
2023-02-23T21:47:20.888Z,86.80
2023-02-23T21:49:55.078Z,68.68
2023-02-23T21:52:23.041Z,65.55
2023-02-23T21:54:52.442Z,90.65
2023-02-23T21:57:23.134Z,89.85
2023-02-23T21:59:50.883Z,75.72
2023-02-23T22:02:20.574Z,73.55
2023-02-23T22:04:50.235Z,61.35
2023-02-23T22:07:17.691Z,61.40
2023-02-23T22:09:45.148Z,68.82
2023-02-23T22:12:12.664Z,50.17
2023-02-23T22:14:39.917Z,54.13
2023-02-23T22:17:09.969Z,59.60
2023-02-23T22:19:38.743Z,58.25
2023-02-23T22:22:20.409Z,53.45
2023-02-23T22:24:51.875Z,54.38
2023-02-23T22:27:19.501Z,54.20
2023-02-23T22:29:46.712Z,59.38
2023-02-23T22:32:14.394Z,44.97
2023-02-23T22:34:41.774Z,46.65
2023-02-23T22:37:09.139Z,43.92
2023-02-23T22:39:41.868Z,46.20
2023-02-23T22:42:12.903Z,49.33
2023-02-23T22:44:47.337Z,46.63
2023-02-23T22:47:15.923Z,45.53
2023-02-23T22:49:43.311Z,46.13
2023-02-23T22:52:10.747Z,43.58
2023-02-23T22:54:40.035Z,39.10
2023-02-23T22:57:07.323Z,45.60
2023-02-23T22:59:34.745Z,42.22
2023-02-23T23:02:03.160Z,46.20
2023-02-23T23:04:30.760Z,45.40
2023-02-23T23:06:58.543Z,45.25
2023-02-23T23:11:54.123Z,53.80
2023-02-23T23:22:00.645Z,41.38
2023-02-23T23:24:28.263Z,42.80
2023-02-23T23:26:56.063Z,43.15
2023-02-23T23:29:26.075Z,50.50
2023-02-23T23:31:53.940Z,43.38
2023-02-23T23:34:33.807Z,46.75
2023-02-23T23:37:03.177Z,42.17
2023-02-23T23:39:30.490Z,46.42
2023-02-23T23:41:58.967Z,47.72
2023-02-23T23:44:29.752Z,42.85
2023-02-23T23:46:58.538Z,52.15
2023-02-23T23:49:27.966Z,55.15
2023-02-23T23:51:56.943Z,44.97
2023-02-23T23:54:31.126Z,50.38
2023-02-23T23:57:01.707Z,46.17
2023-02-23T23:59:32.038Z,46.55
